sensor_id;sensor_type;location;lat;lon;timestamp;P1;durP1;ratioP1;P2;durP2;ratioP2
14768;SDS011;7476;49.404;11.152;2023-08-06T00:00:56;6.57;;;5.13;;
14768;SDS011;7476;49.404;11.152;2023-08-06T00:03:23;5.40;;;4.50;;
14768;SDS011;7476;49.404;11.152;2023-08-06T00:05:51;5.27;;;4.77;;
14768;SDS011;7476;49.404;11.152;2023-08-06T00:08:18;5.77;;;4.50;;
14768;SDS011;7476;49.404;11.152;2023-08-06T00:10:46;5.40;;;4.77;;
14768;SDS011;7476;49.404;11.152;2023-08-06T00:13:13;5.93;;;4.73;;
14768;SDS011;7476;49.404;11.152;2023-08-06T00:15:40;5.87;;;4.80;;
14768;SDS011;7476;49.404;11.152;2023-08-06T00:18:07;6.40;;;4.77;;
14768;SDS011;7476;49.404;11.152;2023-08-06T00:20:33;4.87;;;4.37;;
14768;SDS011;7476;49.404;11.152;2023-08-06T00:23:01;6.33;;;4.90;;
14768;SDS011;7476;49.404;11.152;2023-08-06T00:25:28;6.00;;;4.93;;
14768;SDS011;7476;49.404;11.152;2023-08-06T00:27:55;5.20;;;4.70;;
14768;SDS011;7476;49.404;11.152;2023-08-06T00:30:21;5.77;;;5.00;;
14768;SDS011;7476;49.404;11.152;2023-08-06T00:32:48;5.17;;;4.67;;
14768;SDS011;7476;49.404;11.152;2023-08-06T00:35:15;5.37;;;4.77;;
14768;SDS011;7476;49.404;11.152;2023-08-06T00:37:41;5.20;;;4.63;;
14768;SDS011;7476;49.404;11.152;2023-08-06T00:40:09;5.03;;;4.50;;
14768;SDS011;7476;49.404;11.152;2023-08-06T00:42:36;4.73;;;4.30;;
14768;SDS011;7476;49.404;11.152;2023-08-06T00:45:03;5.70;;;4.70;;
14768;SDS011;7476;49.404;11.152;2023-08-06T00:47:30;6.83;;;4.97;;
14768;SDS011;7476;49.404;11.152;2023-08-06T00:49:57;5.60;;;4.70;;
14768;SDS011;7476;49.404;11.152;2023-08-06T00:52:24;6.23;;;5.33;;
14768;SDS011;7476;49.404;11.152;2023-08-06T00:54:51;5.90;;;4.73;;
14768;SDS011;7476;49.404;11.152;2023-08-06T00:57:19;6.33;;;4.80;;
14768;SDS011;7476;49.404;11.152;2023-08-06T00:59:48;5.03;;;4.53;;
14768;SDS011;7476;49.404;11.152;2023-08-06T01:02:15;5.80;;;5.20;;
14768;SDS011;7476;49.404;11.152;2023-08-06T01:04:41;5.33;;;4.87;;
14768;SDS011;7476;49.404;11.152;2023-08-06T01:07:11;6.13;;;5.30;;
14768;SDS011;7476;49.404;11.152;2023-08-06T01:09:50;5.77;;;4.73;;
14768;SDS011;7476;49.404;11.152;2023-08-06T01:12:26;5.67;;;5.17;;
14768;SDS011;7476;49.404;11.152;2023-08-06T01:15:01;8.20;;;5.40;;
14768;SDS011;7476;49.404;11.152;2023-08-06T01:17:33;5.70;;;5.17;;
14768;SDS011;7476;49.404;11.152;2023-08-06T01:20:01;5.57;;;5.00;;
14768;SDS011;7476;49.404;11.152;2023-08-06T01:22:30;5.30;;;4.80;;
14768;SDS011;7476;49.404;11.152;2023-08-06T01:24:56;5.77;;;5.10;;
14768;SDS011;7476;49.404;11.152;2023-08-06T01:27:24;5.83;;;5.00;;
14768;SDS011;7476;49.404;11.152;2023-08-06T01:29:57;5.53;;;4.83;;
14768;SDS011;7476;49.404;11.152;2023-08-06T01:32:29;5.00;;;4.50;;
14768;SDS011;7476;49.404;11.152;2023-08-06T01:34:57;5.00;;;4.50;;
14768;SDS011;7476;49.404;11.152;2023-08-06T01:37:26;4.97;;;4.47;;
14768;SDS011;7476;49.404;11.152;2023-08-06T01:39:55;8.73;;;5.23;;
14768;SDS011;7476;49.404;11.152;2023-08-06T01:42:22;6.27;;;4.77;;
14768;SDS011;7476;49.404;11.152;2023-08-06T01:44:48;5.37;;;4.87;;
14768;SDS011;7476;49.404;11.152;2023-08-06T01:47:15;5.93;;;5.13;;
14768;SDS011;7476;49.404;11.152;2023-08-06T01:49:42;5.37;;;4.53;;
14768;SDS011;7476;49.404;11.152;2023-08-06T01:52:08;6.00;;;5.07;;
14768;SDS011;7476;49.404;11.152;2023-08-06T01:54:35;5.67;;;5.17;;
14768;SDS011;7476;49.404;11.152;2023-08-06T01:57:03;6.03;;;5.03;;
14768;SDS011;7476;49.404;11.152;2023-08-06T01:59:30;5.83;;;5.23;;
14768;SDS011;7476;49.404;11.152;2023-08-06T02:01:57;5.63;;;4.80;;
14768;SDS011;7476;49.404;11.152;2023-08-06T02:04:24;5.80;;;5.20;;
14768;SDS011;7476;49.404;11.152;2023-08-06T02:06:50;5.30;;;4.80;;
14768;SDS011;7476;49.404;11.152;2023-08-06T02:09:17;5.23;;;4.63;;
14768;SDS011;7476;49.404;11.152;2023-08-06T02:11:44;5.00;;;4.50;;
14768;SDS011;7476;49.404;11.152;2023-08-06T02:14:12;4.87;;;4.37;;
14768;SDS011;7476;49.404;11.152;2023-08-06T02:16:38;5.27;;;4.30;;
14768;SDS011;7476;49.404;11.152;2023-08-06T02:19:05;4.97;;;4.57;;
14768;SDS011;7476;49.404;11.152;2023-08-06T02:21:32;5.43;;;4.43;;
14768;SDS011;7476;49.404;11.152;2023-08-06T02:23:58;5.93;;;4.60;;
14768;SDS011;7476;49.404;11.152;2023-08-06T02:26:25;5.40;;;4.90;;
14768;SDS011;7476;49.404;11.152;2023-08-06T02:28:52;5.57;;;4.93;;
14768;SDS011;7476;49.404;11.152;2023-08-06T02:31:20;6.50;;;4.77;;
14768;SDS011;7476;49.404;11.152;2023-08-06T02:33:47;5.40;;;4.90;;
14768;SDS011;7476;49.404;11.152;2023-08-06T02:36:13;5.70;;;5.10;;
14768;SDS011;7476;49.404;11.152;2023-08-06T02:38:40;6.20;;;5.67;;
14768;SDS011;7476;49.404;11.152;2023-08-06T02:41:06;6.97;;;5.37;;
14768;SDS011;7476;49.404;11.152;2023-08-06T02:43:33;5.60;;;5.10;;
14768;SDS011;7476;49.404;11.152;2023-08-06T02:46:00;5.57;;;4.97;;
14768;SDS011;7476;49.404;11.152;2023-08-06T02:48:28;5.53;;;5.03;;
14768;SDS011;7476;49.404;11.152;2023-08-06T02:50:57;6.20;;;5.00;;
14768;SDS011;7476;49.404;11.152;2023-08-06T02:53:25;5.97;;;4.90;;
14768;SDS011;7476;49.404;11.152;2023-08-06T02:55:51;5.63;;;4.70;;
14768;SDS011;7476;49.404;11.152;2023-08-06T02:58:18;5.87;;;4.73;;
14768;SDS011;7476;49.404;11.152;2023-08-06T03:00:47;7.43;;;4.80;;
14768;SDS011;7476;49.404;11.152;2023-08-06T03:03:25;4.97;;;4.20;;
14768;SDS011;7476;49.404;11.152;2023-08-06T03:05:53;5.47;;;3.93;;
14768;SDS011;7476;49.404;11.152;2023-08-06T03:08:20;4.90;;;4.30;;
14768;SDS011;7476;49.404;11.152;2023-08-06T03:10:47;4.60;;;4.07;;
14768;SDS011;7476;49.404;11.152;2023-08-06T03:13:14;7.50;;;4.13;;
14768;SDS011;7476;49.404;11.152;2023-08-06T03:15:40;4.70;;;4.07;;
14768;SDS011;7476;49.404;11.152;2023-08-06T03:18:07;4.43;;;4.03;;
14768;SDS011;7476;49.404;11.152;2023-08-06T03:20:34;4.57;;;4.17;;
14768;SDS011;7476;49.404;11.152;2023-08-06T03:23:02;4.50;;;4.03;;
14768;SDS011;7476;49.404;11.152;2023-08-06T03:25:28;6.57;;;3.93;;
14768;SDS011;7476;49.404;11.152;2023-08-06T03:27:55;4.70;;;3.90;;
14768;SDS011;7476;49.404;11.152;2023-08-06T03:30:22;4.77;;;3.80;;
14768;SDS011;7476;49.404;11.152;2023-08-06T03:32:48;6.03;;;4.00;;
14768;SDS011;7476;49.404;11.152;2023-08-06T03:35:15;4.57;;;4.00;;
14768;SDS011;7476;49.404;11.152;2023-08-06T03:37:41;4.23;;;3.60;;
14768;SDS011;7476;49.404;11.152;2023-08-06T03:40:10;4.40;;;3.70;;
14768;SDS011;7476;49.404;11.152;2023-08-06T03:42:37;5.40;;;3.70;;
14768;SDS011;7476;49.404;11.152;2023-08-06T03:45:04;4.00;;;3.60;;
14768;SDS011;7476;49.404;11.152;2023-08-06T03:47:31;4.17;;;3.77;;
14768;SDS011;7476;49.404;11.152;2023-08-06T03:49:58;4.30;;;3.80;;
14768;SDS011;7476;49.404;11.152;2023-08-06T03:52:24;6.00;;;3.73;;
14768;SDS011;7476;49.404;11.152;2023-08-06T03:54:51;4.20;;;3.80;;
14768;SDS011;7476;49.404;11.152;2023-08-06T03:57:19;4.73;;;4.23;;
14768;SDS011;7476;49.404;11.152;2023-08-06T03:59:46;4.10;;;3.67;;
14768;SDS011;7476;49.404;11.152;2023-08-06T04:02:12;4.27;;;3.87;;
14768;SDS011;7476;49.404;11.152;2023-08-06T04:04:39;4.57;;;4.17;;
14768;SDS011;7476;49.404;11.152;2023-08-06T04:07:06;5.23;;;4.07;;
14768;SDS011;7476;49.404;11.152;2023-08-06T04:09:32;4.17;;;3.70;;
14768;SDS011;7476;49.404;11.152;2023-08-06T04:11:59;5.57;;;3.73;;
14768;SDS011;7476;49.404;11.152;2023-08-06T04:14:28;4.47;;;3.67;;
14768;SDS011;7476;49.404;11.152;2023-08-06T04:16:54;5.23;;;3.60;;
14768;SDS011;7476;49.404;11.152;2023-08-06T04:19:21;4.13;;;3.30;;
14768;SDS011;7476;49.404;11.152;2023-08-06T04:21:47;4.10;;;3.67;;
14768;SDS011;7476;49.404;11.152;2023-08-06T04:24:14;4.00;;;3.60;;
14768;SDS011;7476;49.404;11.152;2023-08-06T04:26:41;4.33;;;3.93;;
14768;SDS011;7476;49.404;11.152;2023-08-06T04:29:07;3.93;;;3.53;;
14768;SDS011;7476;49.404;11.152;2023-08-06T04:31:35;3.97;;;3.57;;
14768;SDS011;7476;49.404;11.152;2023-08-06T04:34:02;4.10;;;3.70;;
14768;SDS011;7476;49.404;11.152;2023-08-06T04:36:28;3.90;;;3.60;;
14768;SDS011;7476;49.404;11.152;2023-08-06T04:38:55;5.70;;;4.20;;
14768;SDS011;7476;49.404;11.152;2023-08-06T04:41:22;5.97;;;5.43;;
14768;SDS011;7476;49.404;11.152;2023-08-06T04:43:48;6.43;;;4.37;;
14768;SDS011;7476;49.404;11.152;2023-08-06T04:46:15;4.80;;;4.30;;
14768;SDS011;7476;49.404;11.152;2023-08-06T04:48:43;4.50;;;4.00;;
14768;SDS011;7476;49.404;11.152;2023-08-06T04:51:10;4.80;;;4.30;;
14768;SDS011;7476;49.404;11.152;2023-08-06T04:53:36;4.90;;;4.40;;
14768;SDS011;7476;49.404;11.152;2023-08-06T04:56:03;5.67;;;4.30;;
14768;SDS011;7476;49.404;11.152;2023-08-06T04:58:30;4.33;;;3.93;;
14768;SDS011;7476;49.404;11.152;2023-08-06T05:00:56;4.77;;;4.37;;
14768;SDS011;7476;49.404;11.152;2023-08-06T05:03:23;5.33;;;3.90;;
14768;SDS011;7476;49.404;11.152;2023-08-06T05:05:51;6.30;;;4.17;;
14768;SDS011;7476;49.404;11.152;2023-08-06T05:08:18;4.07;;;3.77;;
14768;SDS011;7476;49.404;11.152;2023-08-06T05:10:44;5.70;;;4.60;;
14768;SDS011;7476;49.404;11.152;2023-08-06T05:13:11;4.50;;;4.10;;
14768;SDS011;7476;49.404;11.152;2023-08-06T05:15:38;5.27;;;4.70;;
14768;SDS011;7476;49.404;11.152;2023-08-06T05:18:07;5.03;;;4.60;;
14768;SDS011;7476;49.404;11.152;2023-08-06T05:20:35;5.53;;;5.03;;
14768;SDS011;7476;49.404;11.152;2023-08-06T05:23:04;5.53;;;4.90;;
14768;SDS011;7476;49.404;11.152;2023-08-06T05:25:31;4.57;;;4.13;;
14768;SDS011;7476;49.404;11.152;2023-08-06T05:27:57;4.93;;;4.33;;
14768;SDS011;7476;49.404;11.152;2023-08-06T05:30:24;4.97;;;4.53;;
14768;SDS011;7476;49.404;11.152;2023-08-06T05:32:51;5.80;;;4.27;;
14768;SDS011;7476;49.404;11.152;2023-08-06T05:35:18;6.20;;;4.00;;
14768;SDS011;7476;49.404;11.152;2023-08-06T05:37:45;4.83;;;4.33;;
14768;SDS011;7476;49.404;11.152;2023-08-06T05:40:13;4.93;;;4.43;;
14768;SDS011;7476;49.404;11.152;2023-08-06T05:42:40;5.30;;;4.80;;
14768;SDS011;7476;49.404;11.152;2023-08-06T05:45:07;5.10;;;4.60;;
14768;SDS011;7476;49.404;11.152;2023-08-06T05:47:34;5.27;;;4.70;;
14768;SDS011;7476;49.404;11.152;2023-08-06T05:50:01;5.20;;;4.70;;
14768;SDS011;7476;49.404;11.152;2023-08-06T05:52:28;4.73;;;4.20;;
14768;SDS011;7476;49.404;11.152;2023-08-06T05:54:54;5.70;;;5.10;;
14768;SDS011;7476;49.404;11.152;2023-08-06T05:57:22;5.03;;;4.53;;
14768;SDS011;7476;49.404;11.152;2023-08-06T05:59:49;5.67;;;4.70;;
14768;SDS011;7476;49.404;11.152;2023-08-06T06:02:16;5.17;;;4.67;;
14768;SDS011;7476;49.404;11.152;2023-08-06T06:04:44;4.73;;;4.23;;
14768;SDS011;7476;49.404;11.152;2023-08-06T06:07:10;5.60;;;4.83;;
14768;SDS011;7476;49.404;11.152;2023-08-06T06:09:37;5.33;;;4.83;;
14768;SDS011;7476;49.404;11.152;2023-08-06T06:12:05;4.83;;;4.43;;
14768;SDS011;7476;49.404;11.152;2023-08-06T06:14:33;4.93;;;4.40;;
14768;SDS011;7476;49.404;11.152;2023-08-06T06:17:00;5.20;;;4.07;;
14768;SDS011;7476;49.404;11.152;2023-08-06T06:19:27;4.40;;;3.47;;
14768;SDS011;7476;49.404;11.152;2023-08-06T06:21:53;4.07;;;3.40;;
14768;SDS011;7476;49.404;11.152;2023-08-06T06:24:22;4.17;;;2.70;;
14768;SDS011;7476;49.404;11.152;2023-08-06T06:26:49;3.30;;;3.00;;
14768;SDS011;7476;49.404;11.152;2023-08-06T06:29:15;3.20;;;2.73;;
14768;SDS011;7476;49.404;11.152;2023-08-06T06:31:43;2.87;;;2.63;;
14768;SDS011;7476;49.404;11.152;2023-08-06T06:34:10;3.50;;;2.87;;
14768;SDS011;7476;49.404;11.152;2023-08-06T06:36:37;3.27;;;2.97;;
14768;SDS011;7476;49.404;11.152;2023-08-06T06:39:03;4.87;;;2.60;;
14768;SDS011;7476;49.404;11.152;2023-08-06T06:41:30;4.03;;;3.20;;
14768;SDS011;7476;49.404;11.152;2023-08-06T06:43:58;3.57;;;3.10;;
14768;SDS011;7476;49.404;11.152;2023-08-06T06:46:24;4.43;;;3.53;;
14768;SDS011;7476;49.404;11.152;2023-08-06T06:48:52;3.87;;;3.57;;
14768;SDS011;7476;49.404;11.152;2023-08-06T06:51:19;3.70;;;3.10;;
14768;SDS011;7476;49.404;11.152;2023-08-06T06:53:45;4.87;;;3.30;;
14768;SDS011;7476;49.404;11.152;2023-08-06T06:56:12;3.87;;;3.47;;
14768;SDS011;7476;49.404;11.152;2023-08-06T06:58:39;5.47;;;3.30;;
14768;SDS011;7476;49.404;11.152;2023-08-06T07:01:06;4.83;;;3.47;;
14768;SDS011;7476;49.404;11.152;2023-08-06T07:03:35;4.10;;;3.70;;
14768;SDS011;7476;49.404;11.152;2023-08-06T07:06:03;3.70;;;3.30;;
14768;SDS011;7476;49.404;11.152;2023-08-06T07:08:30;3.37;;;3.07;;
14768;SDS011;7476;49.404;11.152;2023-08-06T07:11:00;5.20;;;3.77;;
14768;SDS011;7476;49.404;11.152;2023-08-06T07:13:28;4.93;;;3.27;;
14768;SDS011;7476;49.404;11.152;2023-08-06T07:15:54;3.60;;;3.20;;
14768;SDS011;7476;49.404;11.152;2023-08-06T07:18:21;5.77;;;3.43;;
14768;SDS011;7476;49.404;11.152;2023-08-06T07:20:48;4.10;;;3.07;;
14768;SDS011;7476;49.404;11.152;2023-08-06T07:23:16;5.13;;;4.63;;
14768;SDS011;7476;49.404;11.152;2023-08-06T07:25:43;3.93;;;3.60;;
14768;SDS011;7476;49.404;11.152;2023-08-06T07:28:12;4.70;;;3.47;;
14768;SDS011;7476;49.404;11.152;2023-08-06T07:30:39;5.73;;;3.73;;
14768;SDS011;7476;49.404;11.152;2023-08-06T07:33:06;6.20;;;3.77;;
14768;SDS011;7476;49.404;11.152;2023-08-06T07:35:32;3.30;;;3.00;;
14768;SDS011;7476;49.404;11.152;2023-08-06T07:37:59;5.17;;;2.97;;
14768;SDS011;7476;49.404;11.152;2023-08-06T07:40:28;3.50;;;3.17;;
14768;SDS011;7476;49.404;11.152;2023-08-06T07:42:54;3.90;;;3.40;;
14768;SDS011;7476;49.404;11.152;2023-08-06T07:45:21;3.43;;;3.13;;
14768;SDS011;7476;49.404;11.152;2023-08-06T07:47:48;3.77;;;2.97;;
14768;SDS011;7476;49.404;11.152;2023-08-06T07:50:14;3.80;;;3.17;;
14768;SDS011;7476;49.404;11.152;2023-08-06T07:52:41;3.13;;;2.83;;
14768;SDS011;7476;49.404;11.152;2023-08-06T07:55:08;4.07;;;3.10;;
14768;SDS011;7476;49.404;11.152;2023-08-06T07:57:36;3.17;;;2.93;;
14768;SDS011;7476;49.404;11.152;2023-08-06T08:00:03;2.90;;;2.43;;
14768;SDS011;7476;49.404;11.152;2023-08-06T08:02:31;2.60;;;2.40;;
14768;SDS011;7476;49.404;11.152;2023-08-06T08:04:57;2.87;;;2.67;;
14768;SDS011;7476;49.404;11.152;2023-08-06T08:07:24;3.10;;;2.43;;
14768;SDS011;7476;49.404;11.152;2023-08-06T08:09:53;3.47;;;2.40;;
14768;SDS011;7476;49.404;11.152;2023-08-06T08:12:20;3.40;;;2.30;;
14768;SDS011;7476;49.404;11.152;2023-08-06T08:14:48;3.03;;;2.23;;
14768;SDS011;7476;49.404;11.152;2023-08-06T08:17:14;4.93;;;2.50;;
14768;SDS011;7476;49.404;11.152;2023-08-06T08:19:41;3.47;;;2.37;;
14768;SDS011;7476;49.404;11.152;2023-08-06T08:22:07;2.57;;;2.27;;
14768;SDS011;7476;49.404;11.152;2023-08-06T08:24:34;2.87;;;2.20;;
14768;SDS011;7476;49.404;11.152;2023-08-06T08:27:01;2.30;;;2.10;;
14768;SDS011;7476;49.404;11.152;2023-08-06T08:29:27;3.67;;;2.10;;
14768;SDS011;7476;49.404;11.152;2023-08-06T08:31:55;4.00;;;2.40;;
14768;SDS011;7476;49.404;11.152;2023-08-06T08:34:22;3.13;;;2.30;;
14768;SDS011;7476;49.404;11.152;2023-08-06T08:36:49;2.37;;;1.87;;
14768;SDS011;7476;49.404;11.152;2023-08-06T08:39:15;2.07;;;1.47;;
14768;SDS011;7476;49.404;11.152;2023-08-06T08:41:42;1.93;;;1.50;;
14768;SDS011;7476;49.404;11.152;2023-08-06T08:44:09;1.60;;;1.50;;
14768;SDS011;7476;49.404;11.152;2023-08-06T08:46:38;3.40;;;1.40;;
14768;SDS011;7476;49.404;11.152;2023-08-06T08:49:08;2.60;;;1.57;;
14768;SDS011;7476;49.404;11.152;2023-08-06T08:51:34;3.30;;;1.27;;
14768;SDS011;7476;49.404;11.152;2023-08-06T08:54:02;2.33;;;1.23;;
14768;SDS011;7476;49.404;11.152;2023-08-06T08:56:29;1.30;;;1.20;;
14768;SDS011;7476;49.404;11.152;2023-08-06T08:58:57;1.37;;;1.00;;
14768;SDS011;7476;49.404;11.152;2023-08-06T09:01:24;1.80;;;0.80;;
14768;SDS011;7476;49.404;11.152;2023-08-06T09:03:51;0.63;;;0.63;;
14768;SDS011;7476;49.404;11.152;2023-08-06T09:06:21;0.93;;;0.83;;
14768;SDS011;7476;49.404;11.152;2023-08-06T09:08:50;1.10;;;0.70;;
14768;SDS011;7476;49.404;11.152;2023-08-06T09:11:21;0.70;;;0.70;;
14768;SDS011;7476;49.404;11.152;2023-08-06T09:13:47;1.23;;;0.80;;
14768;SDS011;7476;49.404;11.152;2023-08-06T09:16:14;2.20;;;1.10;;
14768;SDS011;7476;49.404;11.152;2023-08-06T09:18:41;1.37;;;1.00;;
14768;SDS011;7476;49.404;11.152;2023-08-06T09:21:12;0.70;;;0.70;;
14768;SDS011;7476;49.404;11.152;2023-08-06T09:23:42;0.80;;;0.70;;
14768;SDS011;7476;49.404;11.152;2023-08-06T09:26:11;0.80;;;0.80;;
14768;SDS011;7476;49.404;11.152;2023-08-06T09:28:38;0.70;;;0.70;;
14768;SDS011;7476;49.404;11.152;2023-08-06T09:31:07;0.50;;;0.50;;
14768;SDS011;7476;49.404;11.152;2023-08-06T09:33:35;0.70;;;0.70;;
14768;SDS011;7476;49.404;11.152;2023-08-06T09:36:09;0.93;;;0.60;;
14768;SDS011;7476;49.404;11.152;2023-08-06T09:38:39;0.70;;;0.70;;
14768;SDS011;7476;49.404;11.152;2023-08-06T09:41:07;1.13;;;0.60;;
14768;SDS011;7476;49.404;11.152;2023-08-06T09:43:40;0.60;;;0.60;;
14768;SDS011;7476;49.404;11.152;2023-08-06T09:46:11;0.77;;;0.60;;
14768;SDS011;7476;49.404;11.152;2023-08-06T09:48:39;0.73;;;0.60;;
14768;SDS011;7476;49.404;11.152;2023-08-06T09:51:06;0.70;;;0.70;;
14768;SDS011;7476;49.404;11.152;2023-08-06T09:53:34;0.70;;;0.70;;
14768;SDS011;7476;49.404;11.152;2023-08-06T09:56:04;0.70;;;0.60;;
14768;SDS011;7476;49.404;11.152;2023-08-06T09:58:31;0.80;;;0.60;;
14768;SDS011;7476;49.404;11.152;2023-08-06T10:00:58;1.53;;;0.80;;
14768;SDS011;7476;49.404;11.152;2023-08-06T10:03:27;0.60;;;0.60;;
14768;SDS011;7476;49.404;11.152;2023-08-06T10:05:56;0.73;;;0.63;;
14768;SDS011;7476;49.404;11.152;2023-08-06T10:08:23;0.60;;;0.60;;
14768;SDS011;7476;49.404;11.152;2023-08-06T10:10:50;0.80;;;0.77;;
14768;SDS011;7476;49.404;11.152;2023-08-06T10:13:18;0.77;;;0.77;;
14768;SDS011;7476;49.404;11.152;2023-08-06T10:15:47;0.83;;;0.70;;
14768;SDS011;7476;49.404;11.152;2023-08-06T10:18:14;1.47;;;0.80;;
14768;SDS011;7476;49.404;11.152;2023-08-06T10:20:46;1.30;;;0.83;;
14768;SDS011;7476;49.404;11.152;2023-08-06T10:23:12;0.90;;;0.80;;
14768;SDS011;7476;49.404;11.152;2023-08-06T10:25:40;1.63;;;0.90;;
14768;SDS011;7476;49.404;11.152;2023-08-06T10:28:07;3.90;;;0.90;;
14768;SDS011;7476;49.404;11.152;2023-08-06T10:30:42;0.60;;;0.60;;
14768;SDS011;7476;49.404;11.152;2023-08-06T10:33:09;0.80;;;0.80;;
14768;SDS011;7476;49.404;11.152;2023-08-06T10:35:37;0.80;;;0.80;;
14768;SDS011;7476;49.404;11.152;2023-08-06T10:38:05;0.73;;;0.73;;
14768;SDS011;7476;49.404;11.152;2023-08-06T10:40:33;0.90;;;0.90;;
14768;SDS011;7476;49.404;11.152;2023-08-06T10:43:01;0.80;;;0.80;;
14768;SDS011;7476;49.404;11.152;2023-08-06T10:45:29;1.57;;;0.80;;
14768;SDS011;7476;49.404;11.152;2023-08-06T10:47:57;1.27;;;0.60;;
14768;SDS011;7476;49.404;11.152;2023-08-06T10:50:24;0.50;;;0.50;;
14768;SDS011;7476;49.404;11.152;2023-08-06T10:52:51;0.90;;;0.70;;
14768;SDS011;7476;49.404;11.152;2023-08-06T10:55:24;0.53;;;0.53;;
14768;SDS011;7476;49.404;11.152;2023-08-06T10:57:52;0.70;;;0.70;;
14768;SDS011;7476;49.404;11.152;2023-08-06T11:00:20;0.60;;;0.60;;
14768;SDS011;7476;49.404;11.152;2023-08-06T11:02:48;0.87;;;0.80;;
14768;SDS011;7476;49.404;11.152;2023-08-06T11:05:17;0.60;;;0.60;;
14768;SDS011;7476;49.404;11.152;2023-08-06T11:07:44;0.50;;;0.50;;
14768;SDS011;7476;49.404;11.152;2023-08-06T11:10:13;0.60;;;0.60;;
14768;SDS011;7476;49.404;11.152;2023-08-06T11:12:39;0.60;;;0.60;;
14768;SDS011;7476;49.404;11.152;2023-08-06T11:15:07;0.50;;;0.50;;
14768;SDS011;7476;49.404;11.152;2023-08-06T11:17:34;0.87;;;0.70;;
14768;SDS011;7476;49.404;11.152;2023-08-06T11:20:02;0.50;;;0.50;;
14768;SDS011;7476;49.404;11.152;2023-08-06T11:22:31;0.80;;;0.60;;
14768;SDS011;7476;49.404;11.152;2023-08-06T11:24:58;0.40;;;0.40;;
14768;SDS011;7476;49.404;11.152;2023-08-06T11:27:26;0.93;;;0.60;;
14768;SDS011;7476;49.404;11.152;2023-08-06T11:29:53;0.60;;;0.60;;
14768;SDS011;7476;49.404;11.152;2023-08-06T11:32:20;0.60;;;0.60;;
14768;SDS011;7476;49.404;11.152;2023-08-06T11:34:47;0.50;;;0.50;;
14768;SDS011;7476;49.404;11.152;2023-08-06T11:37:13;0.60;;;0.60;;
14768;SDS011;7476;49.404;11.152;2023-08-06T11:39:44;0.80;;;0.70;;
14768;SDS011;7476;49.404;11.152;2023-08-06T11:42:13;0.60;;;0.60;;
14768;SDS011;7476;49.404;11.152;2023-08-06T11:44:40;0.77;;;0.70;;
14768;SDS011;7476;49.404;11.152;2023-08-06T11:47:11;0.60;;;0.60;;
14768;SDS011;7476;49.404;11.152;2023-08-06T11:49:39;0.60;;;0.60;;
14768;SDS011;7476;49.404;11.152;2023-08-06T11:52:18;1.70;;;0.80;;
14768;SDS011;7476;49.404;11.152;2023-08-06T11:55:00;1.00;;;0.90;;
14768;SDS011;7476;49.404;11.152;2023-08-06T11:57:29;0.60;;;0.60;;
14768;SDS011;7476;49.404;11.152;2023-08-06T11:59:58;1.73;;;0.90;;
14768;SDS011;7476;49.404;11.152;2023-08-06T12:02:27;0.60;;;0.60;;
14768;SDS011;7476;49.404;11.152;2023-08-06T12:04:59;0.80;;;0.80;;
14768;SDS011;7476;49.404;11.152;2023-08-06T12:07:28;1.57;;;0.70;;
14768;SDS011;7476;49.404;11.152;2023-08-06T12:09:56;0.70;;;0.70;;
14768;SDS011;7476;49.404;11.152;2023-08-06T12:12:23;0.57;;;0.57;;
14768;SDS011;7476;49.404;11.152;2023-08-06T12:14:50;0.57;;;0.57;;
14768;SDS011;7476;49.404;11.152;2023-08-06T12:17:16;1.37;;;0.60;;
14768;SDS011;7476;49.404;11.152;2023-08-06T12:19:44;0.60;;;0.60;;
14768;SDS011;7476;49.404;11.152;2023-08-06T12:22:11;0.63;;;0.60;;
14768;SDS011;7476;49.404;11.152;2023-08-06T12:24:39;1.60;;;0.60;;
14768;SDS011;7476;49.404;11.152;2023-08-06T12:27:07;1.57;;;0.70;;
14768;SDS011;7476;49.404;11.152;2023-08-06T12:29:34;2.13;;;0.70;;
14768;SDS011;7476;49.404;11.152;2023-08-06T12:32:01;0.80;;;0.80;;
14768;SDS011;7476;49.404;11.152;2023-08-06T12:34:27;0.90;;;0.90;;
14768;SDS011;7476;49.404;11.152;2023-08-06T12:36:54;0.70;;;0.67;;
14768;SDS011;7476;49.404;11.152;2023-08-06T12:39:21;0.70;;;0.60;;
14768;SDS011;7476;49.404;11.152;2023-08-06T12:41:47;1.10;;;0.60;;
14768;SDS011;7476;49.404;11.152;2023-08-06T12:44:15;0.70;;;0.70;;
14768;SDS011;7476;49.404;11.152;2023-08-06T12:46:42;0.63;;;0.63;;
14768;SDS011;7476;49.404;11.152;2023-08-06T12:49:08;0.97;;;0.60;;
14768;SDS011;7476;49.404;11.152;2023-08-06T12:51:35;0.50;;;0.50;;
14768;SDS011;7476;49.404;11.152;2023-08-06T12:54:02;0.70;;;0.50;;
14768;SDS011;7476;49.404;11.152;2023-08-06T12:56:28;1.03;;;0.93;;
14768;SDS011;7476;49.404;11.152;2023-08-06T12:58:55;0.90;;;0.90;;
14768;SDS011;7476;49.404;11.152;2023-08-06T13:01:23;0.60;;;0.60;;
14768;SDS011;7476;49.404;11.152;2023-08-06T13:03:50;1.00;;;0.67;;
14768;SDS011;7476;49.404;11.152;2023-08-06T13:06:16;0.63;;;0.63;;
14768;SDS011;7476;49.404;11.152;2023-08-06T13:08:43;1.33;;;0.70;;
14768;SDS011;7476;49.404;11.152;2023-08-06T13:11:10;0.60;;;0.60;;
14768;SDS011;7476;49.404;11.152;2023-08-06T13:13:36;0.60;;;0.60;;
14768;SDS011;7476;49.404;11.152;2023-08-06T13:16:03;3.47;;;0.70;;
14768;SDS011;7476;49.404;11.152;2023-08-06T13:18:31;1.20;;;0.50;;
14768;SDS011;7476;49.404;11.152;2023-08-06T13:20:58;0.70;;;0.70;;
14768;SDS011;7476;49.404;11.152;2023-08-06T13:23:25;0.70;;;0.70;;
14768;SDS011;7476;49.404;11.152;2023-08-06T13:25:51;0.57;;;0.57;;
14768;SDS011;7476;49.404;11.152;2023-08-06T13:28:20;0.60;;;0.50;;
14768;SDS011;7476;49.404;11.152;2023-08-06T13:30:46;0.50;;;0.50;;
14768;SDS011;7476;49.404;11.152;2023-08-06T13:33:13;0.50;;;0.50;;
14768;SDS011;7476;49.404;11.152;2023-08-06T13:35:41;0.57;;;0.50;;
14768;SDS011;7476;49.404;11.152;2023-08-06T13:38:08;0.50;;;0.50;;
14768;SDS011;7476;49.404;11.152;2023-08-06T13:40:34;0.50;;;0.50;;
14768;SDS011;7476;49.404;11.152;2023-08-06T13:43:01;3.33;;;0.83;;
14768;SDS011;7476;49.404;11.152;2023-08-06T13:45:28;1.50;;;0.53;;
14768;SDS011;7476;49.404;11.152;2023-08-06T13:47:56;0.60;;;0.60;;
14768;SDS011;7476;49.404;11.152;2023-08-06T13:50:22;0.57;;;0.57;;
14768;SDS011;7476;49.404;11.152;2023-08-06T13:52:52;0.40;;;0.40;;
14768;SDS011;7476;49.404;11.152;2023-08-06T13:55:20;0.50;;;0.50;;
14768;SDS011;7476;49.404;11.152;2023-08-06T13:57:47;0.73;;;0.73;;
14768;SDS011;7476;49.404;11.152;2023-08-06T14:00:14;0.77;;;0.60;;
14768;SDS011;7476;49.404;11.152;2023-08-06T14:02:41;0.50;;;0.50;;
14768;SDS011;7476;49.404;11.152;2023-08-06T14:05:08;0.40;;;0.40;;
14768;SDS011;7476;49.404;11.152;2023-08-06T14:07:35;0.57;;;0.57;;
14768;SDS011;7476;49.404;11.152;2023-08-06T14:10:04;0.43;;;0.43;;
14768;SDS011;7476;49.404;11.152;2023-08-06T14:12:31;1.00;;;0.50;;
14768;SDS011;7476;49.404;11.152;2023-08-06T14:14:58;0.50;;;0.50;;
14768;SDS011;7476;49.404;11.152;2023-08-06T14:17:25;0.50;;;0.50;;
14768;SDS011;7476;49.404;11.152;2023-08-06T14:19:52;0.60;;;0.60;;
14768;SDS011;7476;49.404;11.152;2023-08-06T14:22:18;0.93;;;0.50;;
14768;SDS011;7476;49.404;11.152;2023-08-06T14:24:45;1.30;;;0.60;;
14768;SDS011;7476;49.404;11.152;2023-08-06T14:27:14;0.60;;;0.60;;
14768;SDS011;7476;49.404;11.152;2023-08-06T14:29:40;0.90;;;0.70;;
14768;SDS011;7476;49.404;11.152;2023-08-06T14:32:07;0.63;;;0.63;;
14768;SDS011;7476;49.404;11.152;2023-08-06T14:34:33;0.80;;;0.80;;
14768;SDS011;7476;49.404;11.152;2023-08-06T14:37:00;0.70;;;0.70;;
14768;SDS011;7476;49.404;11.152;2023-08-06T14:39:27;0.70;;;0.70;;
14768;SDS011;7476;49.404;11.152;2023-08-06T14:41:53;1.00;;;0.80;;
14768;SDS011;7476;49.404;11.152;2023-08-06T14:44:21;0.50;;;0.50;;
14768;SDS011;7476;49.404;11.152;2023-08-06T14:46:48;1.50;;;0.60;;
14768;SDS011;7476;49.404;11.152;2023-08-06T14:49:14;0.80;;;0.80;;